Time;durP1;ratioP1;P1;durP2;ratioP2;P2;SDS_P1;SDS_P2;PMS_P1;PMS_P2;Temp;Humidity;BMP_temperature;BMP_pressure;BME280_temperature;BME280_humidity;BME280_pressure;Samples;Min_cycle;Max_cycle;Signal;HPM_P1;HPM_P2
2023/03/17 00:02:09;;;;;;;5.30;3.00;;;7.50;99.90;;;;;;5044755;28;20131;-65
2023/03/17 00:04:35;;;;;;;6.68;3.03;;;7.50;99.90;;;;;;5042226;28;20152;-64
2023/03/17 00:07:01;;;;;;;5.25;2.95;;;7.50;99.90;;;;;;5032391;28;20166;-65
2023/03/17 00:09:27;;;;;;;5.43;3.13;;;7.50;99.90;;;;;;5049086;28;20045;-64
2023/03/17 00:11:53;;;;;;;6.07;3.35;;;7.50;99.90;;;;;;5048854;28;20103;-65
2023/03/17 00:14:19;;;;;;;5.18;3.22;;;7.50;99.90;;;;;;5050628;28;20045;-63
2023/03/17 00:16:48;;;;;;;5.80;3.50;;;7.50;99.90;;;;;;5063894;28;20052;-66
2023/03/17 00:19:28;;;;;;;5.47;2.97;;;7.50;99.90;;;;;;5049082;28;20056;-64
2023/03/17 00:21:54;;;;;;;5.68;3.10;;;7.60;99.90;;;;;;5046636;28;20045;-63
2023/03/17 00:24:20;;;;;;;5.85;2.95;;;7.60;99.90;;;;;;5047253;28;20045;-64
2023/03/17 00:26:47;;;;;;;5.82;3.40;;;7.60;99.90;;;;;;5049832;28;20380;-65
2023/03/17 00:29:12;;;;;;;4.47;3.28;;;7.60;99.90;;;;;;5049640;28;20041;-64
2023/03/17 00:31:38;;;;;;;5.68;3.22;;;7.60;99.90;;;;;;5054564;28;20415;-65
2023/03/17 00:34:04;;;;;;;5.18;3.20;;;7.60;99.90;;;;;;5052475;28;20111;-64
2023/03/17 00:36:31;;;;;;;8.02;3.33;;;7.60;99.90;;;;;;5052652;28;20107;-64
2023/03/17 00:38:58;;;;;;;5.90;3.40;;;7.70;99.90;;;;;;5052500;28;20371;-64
2023/03/17 00:41:25;;;;;;;4.03;2.90;;;7.60;99.90;;;;;;5054114;28;20446;-63
2023/03/17 00:43:52;;;;;;;5.13;3.30;;;7.60;99.90;;;;;;5035897;28;20049;-63
2023/03/17 00:46:20;;;;;;;5.20;3.00;;;7.60;99.90;;;;;;5052809;28;20068;-65
2023/03/17 00:48:47;;;;;;;5.50;3.13;;;7.60;99.90;;;;;;5055220;28;20056;-64
2023/03/17 00:51:15;;;;;;;7.28;3.17;;;7.60;99.90;;;;;;5035674;28;20047;-65
2023/03/17 00:53:41;;;;;;;5.07;3.65;;;7.50;99.90;;;;;;5052323;28;20048;-64
2023/03/17 00:56:16;;;;;;;5.28;3.13;;;7.60;99.90;;;;;;5050131;28;20067;-65
2023/03/17 00:58:42;;;;;;;5.80;3.35;;;7.60;99.90;;;;;;5052265;28;20043;-66
2023/03/17 01:01:09;;;;;;;5.75;3.42;;;7.50;99.90;;;;;;5052095;28;20088;-64
2023/03/17 01:03:35;;;;;;;6.55;3.38;;;7.50;99.90;;;;;;5052447;28;20045;-65
2023/03/17 01:06:03;;;;;;;6.68;3.45;;;7.60;99.90;;;;;;5051615;28;20041;-65
2023/03/17 01:08:30;;;;;;;4.53;3.08;;;7.60;99.90;;;;;;5035241;28;20044;-65
2023/03/17 01:10:57;;;;;;;5.88;3.00;;;7.60;99.90;;;;;;5052031;28;20099;-64
2023/03/17 01:13:23;;;;;;;6.82;3.20;;;7.50;99.90;;;;;;5035808;28;20045;-64
2023/03/17 01:15:49;;;;;;;6.90;4.40;;;7.60;99.90;;;;;;5052920;28;20041;-64
2023/03/17 01:18:18;;;;;;;5.38;3.20;;;7.60;99.90;;;;;;5051617;28;20129;-64
2023/03/17 01:20:44;;;;;;;4.70;3.22;;;7.60;99.90;;;;;;5034972;28;20507;-64
2023/03/17 01:23:11;;;;;;;5.13;3.30;;;7.60;99.90;;;;;;5048807;28;20053;-65
2023/03/17 01:25:38;;;;;;;4.68;3.35;;;7.60;99.90;;;;;;5051820;28;20056;-64
2023/03/17 01:28:04;;;;;;;6.82;4.07;;;7.60;99.90;;;;;;5034678;28;20044;-64
2023/03/17 01:30:38;;;;;;;5.57;3.58;;;7.60;99.90;;;;;;5047386;28;20449;-66
2023/03/17 01:33:07;;;;;;;3.72;3.30;;;7.60;99.90;;;;;;5051260;28;20119;-64
2023/03/17 01:35:34;;;;;;;4.00;3.25;;;7.50;99.90;;;;;;5081733;28;20037;-63
2023/03/17 01:37:59;;;;;;;6.00;3.35;;;7.50;99.90;;;;;;5049981;28;20399;-64
2023/03/17 01:40:30;;;;;;;6.13;3.20;;;7.50;99.90;;;;;;5037721;28;20061;-64
2023/03/17 01:43:16;;;;;;;3.92;3.05;;;7.50;99.90;;;;;;5053527;28;20057;-65
2023/03/17 01:46:23;;;;;;;5.45;3.03;;;7.50;99.90;;;;;;5031054;28;20385;-64
2023/03/17 01:48:58;;;;;;;3.90;3.13;;;7.50;99.90;;;;;;5033168;28;20041;-64
2023/03/17 01:51:32;;;;;;;5.43;3.20;;;7.60;99.90;;;;;;5051235;28;20119;-65
2023/03/17 01:54:01;;;;;;;4.25;3.10;;;7.60;99.90;;;;;;5051000;28;20040;-63
2023/03/17 01:56:27;;;;;;;4.65;3.53;;;7.60;99.90;;;;;;5050554;28;20098;-64
2023/03/17 01:58:55;;;;;;;5.13;3.50;;;7.60;99.90;;;;;;5051259;28;20095;-63
2023/03/17 02:01:25;;;;;;;6.53;3.33;;;7.60;99.90;;;;;;5051358;28;20503;-66
2023/03/17 02:03:52;;;;;;;5.53;3.30;;;7.60;99.90;;;;;;5051087;28;20044;-66
2023/03/17 02:06:18;;;;;;;4.82;3.05;;;7.60;99.90;;;;;;5052097;28;20488;-64
2023/03/17 02:08:43;;;;;;;5.88;3.58;;;7.60;99.90;;;;;;5050777;28;20052;-65
2023/03/17 02:11:09;;;;;;;4.72;2.88;;;7.60;99.90;;;;;;5050675;28;20541;-66
2023/03/17 02:13:36;;;;;;;7.30;3.13;;;7.60;99.90;;;;;;5050991;28;20403;-65
2023/03/17 02:16:02;;;;;;;5.00;3.42;;;7.60;99.90;;;;;;5050907;28;20036;-65
2023/03/17 02:18:28;;;;;;;8.18;3.40;;;7.60;99.90;;;;;;5033997;28;20044;-64
2023/03/17 02:21:20;;;;;;;4.82;3.10;;;7.60;99.90;;;;;;5050885;28;20400;-64
2023/03/17 02:23:46;;;;;;;4.80;3.28;;;7.60;99.90;;;;;;5033120;28;20051;-63
2023/03/17 02:26:12;;;;;;;5.63;2.90;;;7.60;99.90;;;;;;5066303;28;20053;-65
2023/03/17 02:28:38;;;;;;;5.53;2.92;;;7.60;99.90;;;;;;5032648;28;20053;-65
2023/03/17 02:31:04;;;;;;;4.25;3.30;;;7.60;99.90;;;;;;5033406;28;20450;-63
2023/03/17 02:33:30;;;;;;;4.82;3.30;;;7.60;99.90;;;;;;5032749;28;20036;-64
2023/03/17 02:35:56;;;;;;;6.72;3.35;;;7.60;99.90;;;;;;5049480;28;20132;-64
2023/03/17 02:38:22;;;;;;;5.45;3.33;;;7.50;99.90;;;;;;5066236;28;20151;-64
2023/03/17 02:40:47;;;;;;;5.22;3.15;;;7.60;99.90;;;;;;5032432;28;20060;-64
2023/03/17 02:43:13;;;;;;;4.90;3.03;;;7.60;99.90;;;;;;5032975;28;20052;-65
2023/03/17 02:45:40;;;;;;;7.28;3.53;;;7.60;99.90;;;;;;5032452;28;20119;-63
2023/03/17 02:48:07;;;;;;;4.70;3.38;;;7.60;99.90;;;;;;5065209;28;20161;-64
2023/03/17 02:50:32;;;;;;;7.25;3.30;;;7.50;99.90;;;;;;5032299;28;20106;-63
2023/03/17 02:52:58;;;;;;;6.18;3.80;;;7.60;99.90;;;;;;5063973;28;20112;-64
2023/03/17 02:55:25;;;;;;;5.72;3.22;;;7.60;99.90;;;;;;5031244;28;20415;-63
2023/03/17 02:57:50;;;;;;;5.70;3.22;;;7.60;99.90;;;;;;5031992;28;20047;-65
2023/03/17 03:00:16;;;;;;;4.97;3.15;;;7.50;99.90;;;;;;5035330;28;20144;-65
2023/03/17 03:02:42;;;;;;;4.93;3.10;;;7.50;99.90;;;;;;5049454;28;20120;-65
2023/03/17 03:05:09;;;;;;;6.72;3.25;;;7.50;99.90;;;;;;5050297;28;20121;-65
2023/03/17 03:07:35;;;;;;;7.55;3.22;;;7.50;99.90;;;;;;5049615;28;20102;-63
2023/03/17 03:10:01;;;;;;;7.63;3.70;;;7.50;99.90;;;;;;5049735;28;20060;-64
2023/03/17 03:12:27;;;;;;;4.47;3.20;;;7.50;99.90;;;;;;5050940;28;20072;-64
2023/03/17 03:14:52;;;;;;;4.22;2.72;;;7.50;99.90;;;;;;5051296;28;20040;-64
2023/03/17 03:17:19;;;;;;;7.03;3.00;;;7.50;99.90;;;;;;5049065;28;20500;-65
2023/03/17 03:19:46;;;;;;;4.40;3.03;;;7.50;99.90;;;;;;5045292;28;20045;-65
2023/03/17 03:22:11;;;;;;;5.30;3.25;;;7.50;99.90;;;;;;5052075;28;20048;-64
2023/03/17 03:24:37;;;;;;;5.22;3.08;;;7.50;99.90;;;;;;5049498;28;20049;-64
2023/03/17 03:27:03;;;;;;;5.20;3.28;;;7.50;99.90;;;;;;5033041;28;20137;-65
2023/03/17 03:29:28;;;;;;;5.00;3.40;;;7.50;99.90;;;;;;5049528;28;20119;-64
2023/03/17 03:31:54;;;;;;;3.75;2.90;;;7.50;99.90;;;;;;5049304;28;20045;-64
2023/03/17 03:34:21;;;;;;;5.38;3.08;;;7.50;99.90;;;;;;5049491;28;20507;-64
2023/03/17 03:36:46;;;;;;;5.22;2.78;;;7.50;99.90;;;;;;5049324;28;20041;-64
2023/03/17 03:39:12;;;;;;;5.53;2.72;;;7.50;99.90;;;;;;5051344;28;20044;-65
2023/03/17 03:41:38;;;;;;;4.20;3.45;;;7.50;99.90;;;;;;5049041;28;20037;-64
2023/03/17 03:44:03;;;;;;;3.92;2.80;;;7.40;99.90;;;;;;5049440;28;20048;-64
2023/03/17 03:46:29;;;;;;;5.05;3.05;;;7.50;99.90;;;;;;5050409;28;20037;-64
2023/03/17 03:48:55;;;;;;;4.15;2.80;;;7.40;99.90;;;;;;5049051;28;20059;-64
2023/03/17 03:51:20;;;;;;;5.00;3.17;;;7.40;99.90;;;;;;5049323;28;20040;-65
2023/03/17 03:53:47;;;;;;;5.85;2.97;;;7.40;99.90;;;;;;5048921;28;20140;-64
2023/03/17 03:56:13;;;;;;;4.75;3.38;;;7.30;99.90;;;;;;5051610;28;20072;-64
2023/03/17 03:58:39;;;;;;;6.10;2.92;;;7.30;99.90;;;;;;5048707;28;20545;-65
2023/03/17 04:01:06;;;;;;;3.92;3.05;;;7.30;99.90;;;;;;5048761;28;20041;-64
2023/03/17 04:03:32;;;;;;;3.63;3.08;;;7.30;99.90;;;;;;5048361;28;20041;-64
2023/03/17 04:05:57;;;;;;;5.60;3.00;;;7.30;99.90;;;;;;5048940;28;20048;-63
2023/03/17 04:08:23;;;;;;;5.85;2.88;;;7.30;99.90;;;;;;5049031;28;20040;-65
2023/03/17 04:10:49;;;;;;;5.88;3.10;;;7.30;99.90;;;;;;5048501;28;20522;-64
2023/03/17 04:13:15;;;;;;;5.60;3.03;;;7.30;99.90;;;;;;5047460;28;20075;-63
2023/03/17 04:15:41;;;;;;;5.53;3.38;;;7.30;99.90;;;;;;5050168;28;20087;-63
2023/03/17 04:18:07;;;;;;;7.40;3.00;;;7.30;99.90;;;;;;5048308;28;20052;-63
2023/03/17 04:20:32;;;;;;;3.90;3.33;;;7.30;99.90;;;;;;5029672;28;20049;-63
2023/03/17 04:22:58;;;;;;;5.53;3.45;;;7.30;99.90;;;;;;5048364;28;20067;-65
2023/03/17 04:25:25;;;;;;;5.15;2.95;;;7.30;99.90;;;;;;5030343;28;20143;-64
2023/03/17 04:27:50;;;;;;;4.25;3.22;;;7.20;99.90;;;;;;5048868;28;20047;-63
2023/03/17 04:30:16;;;;;;;7.15;3.40;;;7.20;99.90;;;;;;5049940;28;20041;-63
2023/03/17 04:32:43;;;;;;;7.57;3.53;;;7.20;99.90;;;;;;5082058;28;20357;-64
2023/03/17 04:35:16;;;;;;;4.80;3.10;;;7.20;99.90;;;;;;5048706;28;20120;-64
2023/03/17 04:37:42;;;;;;;4.13;2.85;;;7.20;99.90;;;;;;5047460;28;20068;-64
2023/03/17 04:40:10;;;;;;;4.70;3.20;;;7.20;99.90;;;;;;5048555;28;20529;-65
2023/03/17 04:42:36;;;;;;;6.63;3.20;;;7.20;99.90;;;;;;5048375;28;20092;-64
2023/03/17 04:45:03;;;;;;;3.63;2.78;;;7.20;99.90;;;;;;5049859;28;20033;-64
2023/03/17 04:47:29;;;;;;;5.60;3.45;;;7.20;99.90;;;;;;5049923;28;20033;-64
2023/03/17 04:49:55;;;;;;;5.25;3.42;;;7.20;99.90;;;;;;5048884;28;20396;-64
2023/03/17 04:52:21;;;;;;;4.88;3.25;;;7.20;99.90;;;;;;5048352;28;20095;-64
2023/03/17 04:54:46;;;;;;;6.18;3.08;;;7.20;99.90;;;;;;5048428;28;20049;-65
2023/03/17 04:57:12;;;;;;;5.32;3.17;;;7.20;99.90;;;;;;5048197;28;20076;-64
2023/03/17 04:59:37;;;;;;;5.85;2.95;;;7.20;99.90;;;;;;5048368;28;20037;-63
2023/03/17 05:02:03;;;;;;;4.75;3.17;;;7.20;99.90;;;;;;5048376;28;20550;-65
2023/03/17 05:04:29;;;;;;;7.45;3.25;;;7.20;99.90;;;;;;5048776;28;20037;-65
2023/03/17 05:06:57;;;;;;;4.75;3.20;;;7.20;99.90;;;;;;5048557;28;20117;-65
2023/03/17 05:09:23;;;;;;;4.95;3.00;;;7.20;99.90;;;;;;5048184;28;20041;-64
2023/03/17 05:11:50;;;;;;;5.13;3.45;;;7.20;99.90;;;;;;5031743;28;20049;-64
2023/03/17 05:14:16;;;;;;;4.30;3.10;;;7.20;99.90;;;;;;5031542;28;20045;-64
2023/03/17 05:16:42;;;;;;;5.28;3.13;;;7.20;99.90;;;;;;5051812;28;21046;-65
2023/03/17 05:19:08;;;;;;;7.03;3.65;;;7.20;99.90;;;;;;5051617;28;20411;-65
2023/03/17 05:21:34;;;;;;;5.45;3.42;;;7.20;99.90;;;;;;5051826;28;20037;-65
2023/03/17 05:24:00;;;;;;;4.60;3.10;;;7.20;99.90;;;;;;5051642;28;20036;-64
2023/03/17 05:26:26;;;;;;;4.80;3.10;;;7.20;99.90;;;;;;5050996;28;20265;-65
2023/03/17 05:28:52;;;;;;;5.03;3.15;;;7.20;99.90;;;;;;5051000;28;20721;-65
2023/03/17 05:31:17;;;;;;;4.93;3.50;;;7.20;99.90;;;;;;5050460;28;20053;-64
2023/03/17 05:33:45;;;;;;;5.93;3.40;;;7.10;99.90;;;;;;5050243;28;20112;-64
2023/03/17 05:36:11;;;;;;;5.90;3.25;;;7.10;99.90;;;;;;5045684;28;20043;-64
2023/03/17 05:38:36;;;;;;;6.38;3.33;;;7.10;99.90;;;;;;5037254;28;20101;-64
2023/03/17 05:41:02;;;;;;;6.40;3.20;;;7.20;99.90;;;;;;5017212;28;20103;-64
2023/03/17 05:43:28;;;;;;;5.97;3.58;;;7.20;99.90;;;;;;5034062;28;20134;-66
2023/03/17 05:45:54;;;;;;;5.53;3.15;;;7.20;99.90;;;;;;5036214;28;20438;-65
2023/03/17 05:48:21;;;;;;;5.50;3.13;;;7.20;99.90;;;;;;5037402;28;20049;-64
2023/03/17 05:50:47;;;;;;;4.07;3.35;;;7.20;99.90;;;;;;5023112;28;21666;-65
2023/03/17 05:53:13;;;;;;;4.05;3.10;;;7.20;99.90;;;;;;5050020;28;20045;-65
2023/03/17 05:55:39;;;;;;;5.10;3.15;;;7.30;99.90;;;;;;5043019;28;20067;-64
2023/03/17 05:58:05;;;;;;;4.05;3.20;;;7.30;99.90;;;;;;5043125;28;20041;-65
2023/03/17 06:00:31;;;;;;;5.15;3.33;;;7.30;99.90;;;;;;5040381;28;20170;-64
2023/03/17 06:02:57;;;;;;;7.45;3.30;;;7.30;99.90;;;;;;5042012;28;20045;-64
2023/03/17 06:05:22;;;;;;;6.43;3.20;;;7.30;99.90;;;;;;5035740;28;20492;-66
2023/03/17 06:07:48;;;;;;;5.57;3.10;;;7.40;99.90;;;;;;5074988;28;20118;-66
2023/03/17 06:10:14;;;;;;;4.60;3.22;;;7.40;99.90;;;;;;5073381;28;20128;-65
2023/03/17 06:12:40;;;;;;;5.43;3.15;;;7.50;99.90;;;;;;5048218;28;20061;-65
2023/03/17 06:15:08;;;;;;;5.30;3.40;;;7.50;99.90;;;;;;5049064;28;20489;-64
2023/03/17 06:17:34;;;;;;;6.10;3.40;;;7.60;99.90;;;;;;5049579;28;20136;-65
2023/03/17 06:20:00;;;;;;;5.70;3.65;;;7.60;99.90;;;;;;5043896;28;20052;-65
2023/03/17 06:22:26;;;;;;;5.53;3.40;;;7.70;99.90;;;;;;5052503;28;21998;-64
2023/03/17 06:24:52;;;;;;;4.57;2.90;;;7.70;99.90;;;;;;5034778;28;20053;-66
2023/03/17 06:27:18;;;;;;;6.90;3.42;;;7.70;99.90;;;;;;5042877;28;20080;-65
2023/03/17 06:29:44;;;;;;;5.68;3.22;;;7.80;99.90;;;;;;5040264;28;20038;-65
2023/03/17 06:32:10;;;;;;;5.40;3.25;;;7.80;99.90;;;;;;5048484;28;20447;-65
2023/03/17 06:34:35;;;;;;;7.10;3.78;;;7.90;99.90;;;;;;5033753;28;20063;-65
2023/03/17 06:37:01;;;;;;;4.88;2.90;;;7.90;99.90;;;;;;5047909;28;20079;-64
2023/03/17 06:39:30;;;;;;;6.57;3.50;;;7.90;99.90;;;;;;5049579;28;20539;-65
2023/03/17 06:41:56;;;;;;;5.80;2.90;;;7.90;99.90;;;;;;5048968;28;20137;-64
2023/03/17 06:44:21;;;;;;;5.18;3.00;;;7.90;99.90;;;;;;5079199;28;20516;-65
2023/03/17 06:46:47;;;;;;;5.32;3.17;;;8.00;99.90;;;;;;5049024;28;20414;-64
2023/03/17 06:49:13;;;;;;;5.03;3.33;;;8.00;99.90;;;;;;5051183;28;20053;-65
2023/03/17 06:51:39;;;;;;;4.55;3.20;;;8.00;99.90;;;;;;5083722;28;20496;-64
2023/03/17 06:54:06;;;;;;;6.10;3.40;;;8.00;99.90;;;;;;5048727;28;20116;-65
2023/03/17 06:56:32;;;;;;;5.32;3.08;;;8.10;99.90;;;;;;5048904;28;20495;-66
2023/03/17 06:58:58;;;;;;;5.82;3.10;;;8.10;99.90;;;;;;5050510;28;20047;-64
2023/03/17 07:01:25;;;;;;;5.05;3.30;;;8.10;99.90;;;;;;5049284;28;20052;-65
2023/03/17 07:03:51;;;;;;;4.15;2.90;;;8.10;99.90;;;;;;5050472;28;20056;-66
2023/03/17 07:06:17;;;;;;;4.88;3.53;;;8.20;99.90;;;;;;5047851;28;20037;-64
2023/03/17 07:08:43;;;;;;;5.13;3.00;;;8.20;99.90;;;;;;5050201;28;20384;-64
2023/03/17 07:11:09;;;;;;;4.35;2.97;;;8.20;99.90;;;;;;5031234;28;20123;-66
2023/03/17 07:13:36;;;;;;;6.03;3.20;;;8.20;99.90;;;;;;5050019;28;20037;-64
2023/03/17 07:16:02;;;;;;;5.72;3.10;;;8.20;99.90;;;;;;5049683;28;20041;-65
2023/03/17 07:18:32;;;;;;;5.28;3.28;;;8.20;99.90;;;;;;5048835;28;20045;-66
2023/03/17 07:21:01;;;;;;;5.40;3.05;;;8.20;99.90;;;;;;5045558;28;20303;-65
2023/03/17 07:23:28;;;;;;;5.60;3.33;;;8.30;99.90;;;;;;5049072;28;20743;-64
2023/03/17 07:25:54;;;;;;;5.97;3.22;;;8.30;99.90;;;;;;5048515;28;20045;-64
2023/03/17 07:28:20;;;;;;;4.95;2.80;;;8.40;99.90;;;;;;5061592;28;20043;-64
2023/03/17 07:30:50;;;;;;;4.22;3.13;;;8.40;99.90;;;;;;5046203;28;20044;-64
2023/03/17 07:33:16;;;;;;;5.82;3.38;;;8.40;99.90;;;;;;5051218;28;20087;-64
2023/03/17 07:35:47;;;;;;;5.97;3.15;;;8.40;99.90;;;;;;5048990;28;20041;-64
2023/03/17 07:38:14;;;;;;;4.40;3.08;;;8.50;99.90;;;;;;5033958;28;20033;-68
2023/03/17 07:40:40;;;;;;;4.85;2.72;;;8.60;99.90;;;;;;5030464;28;20127;-65
2023/03/17 07:43:07;;;;;;;4.20;2.90;;;8.70;99.90;;;;;;5051509;28;20564;-65
2023/03/17 07:45:34;;;;;;;5.63;3.00;;;8.70;99.90;;;;;;5048836;28;20036;-64
2023/03/17 07:48:01;;;;;;;4.85;2.70;;;8.80;99.90;;;;;;5048914;28;20045;-65
2023/03/17 07:50:27;;;;;;;4.65;3.10;;;8.90;99.90;;;;;;5049271;28;20373;-66
2023/03/17 07:52:53;;;;;;;4.68;3.00;;;8.90;99.90;;;;;;5032744;28;20037;-65
2023/03/17 07:55:19;;;;;;;5.88;3.20;;;9.00;99.90;;;;;;5050482;28;20104;-64
2023/03/17 07:57:45;;;;;;;3.97;3.10;;;9.00;99.90;;;;;;5048772;28;20398;-65
2023/03/17 08:00:12;;;;;;;3.65;2.90;;;9.10;99.90;;;;;;5045222;28;20044;-64
2023/03/17 08:02:38;;;;;;;5.00;3.20;;;9.10;99.90;;;;;;5048763;28;20455;-65
2023/03/17 08:05:06;;;;;;;13.05;3.63;;;9.20;99.90;;;;;;5048780;28;20037;-65
2023/03/17 08:07:32;;;;;;;5.60;2.88;;;9.40;99.90;;;;;;5032084;28;20047;-65
2023/03/17 08:09:58;;;;;;;3.92;2.60;;;9.50;99.90;;;;;;5047753;28;20044;-65
2023/03/17 08:12:24;;;;;;;4.97;3.00;;;9.60;99.90;;;;;;5048843;28;20041;-64
2023/03/17 08:14:51;;;;;;;6.53;2.70;;;9.70;99.90;;;;;;5048825;28;20037;-65
2023/03/17 08:17:16;;;;;;;5.13;2.97;;;9.70;99.90;;;;;;5049331;28;20085;-67
2023/03/17 08:19:42;;;;;;;4.15;2.72;;;9.80;99.90;;;;;;5046670;28;20064;-68
2023/03/17 08:22:09;;;;;;;4.10;2.92;;;9.90;99.90;;;;;;5046997;28;20433;-67
2023/03/17 08:24:35;;;;;;;6.57;3.50;;;9.90;99.90;;;;;;5047897;28;20090;-66
2023/03/17 08:27:02;;;;;;;4.65;2.90;;;9.90;99.90;;;;;;5032017;28;20037;-66
2023/03/17 08:29:29;;;;;;;5.00;2.88;;;9.90;99.90;;;;;;5048867;28;20411;-66
2023/03/17 08:31:55;;;;;;;4.13;2.88;;;9.90;99.90;;;;;;5046713;28;20036;-65
2023/03/17 08:34:22;;;;;;;4.20;2.85;;;10.00;99.90;;;;;;5032155;28;20049;-66
2023/03/17 08:36:48;;;;;;;5.13;3.00;;;10.00;99.90;;;;;;5048414;28;20051;-65
2023/03/17 08:39:14;;;;;;;4.88;3.30;;;10.10;99.90;;;;;;5049087;28;20029;-65
2023/03/17 08:41:40;;;;;;;6.00;3.20;;;10.10;99.90;;;;;;5045932;28;20045;-65
2023/03/17 08:44:08;;;;;;;4.65;3.10;;;10.30;99.90;;;;;;5048144;28;20045;-65
2023/03/17 08:46:35;;;;;;;3.70;2.72;;;10.30;99.90;;;;;;5048708;28;20385;-65
2023/03/17 08:49:02;;;;;;;4.05;2.80;;;10.40;99.90;;;;;;5048494;28;20041;-66
2023/03/17 08:51:31;;;;;;;4.93;2.67;;;10.40;99.90;;;;;;5052239;28;20051;-66
2023/03/17 08:53:57;;;;;;;5.30;3.00;;;10.50;99.90;;;;;;5050559;28;20040;-66
2023/03/17 08:56:23;;;;;;;4.25;2.97;;;10.60;99.90;;;;;;5050106;28;20045;-65
2023/03/17 08:58:50;;;;;;;5.00;2.90;;;10.70;99.90;;;;;;5035549;28;20039;-65
2023/03/17 09:01:17;;;;;;;5.18;2.92;;;10.80;99.90;;;;;;5052487;28;20045;-67
2023/03/17 09:03:44;;;;;;;6.03;3.00;;;10.90;99.90;;;;;;5051515;28;20075;-67
2023/03/17 09:06:11;;;;;;;7.28;3.97;;;11.00;99.90;;;;;;5052448;28;20155;-67
2023/03/17 09:08:38;;;;;;;7.65;3.58;;;11.20;99.90;;;;;;5052770;28;20049;-68
2023/03/17 09:11:06;;;;;;;7.75;4.43;;;11.20;99.90;;;;;;5052050;28;20087;-66
2023/03/17 09:13:33;;;;;;;9.27;4.50;;;11.30;99.90;;;;;;5052737;28;20037;-67
2023/03/17 09:16:00;;;;;;;7.68;4.00;;;11.30;99.90;;;;;;5051871;28;20045;-66
2023/03/17 09:18:26;;;;;;;6.20;3.80;;;11.40;99.90;;;;;;5052333;28;20059;-66
2023/03/17 09:20:51;;;;;;;9.27;3.83;;;11.70;99.90;;;;;;5052093;28;20049;-66
2023/03/17 09:23:17;;;;;;;7.95;4.30;;;11.90;99.90;;;;;;5052530;28;20048;-67
2023/03/17 09:25:43;;;;;;;7.55;4.15;;;12.00;99.90;;;;;;5052335;28;20045;-65
2023/03/17 09:28:11;;;;;;;5.88;3.33;;;12.10;99.90;;;;;;5053166;28;20036;-66
2023/03/17 09:30:39;;;;;;;7.63;3.15;;;12.10;99.90;;;;;;5051815;28;20055;-66
2023/03/17 09:33:04;;;;;;;4.93;3.00;;;12.40;99.90;;;;;;5051636;28;20033;-66
2023/03/17 09:35:31;;;;;;;4.95;3.45;;;12.80;99.90;;;;;;5051960;28;20037;-67
2023/03/17 09:37:56;;;;;;;4.03;3.38;;;13.00;99.90;;;;;;5051997;28;20053;-66
2023/03/17 09:40:31;;;;;;;5.63;3.38;;;13.30;99.90;;;;;;5052949;28;20037;-66
2023/03/17 09:43:09;;;;;;;4.10;2.85;;;13.60;99.90;;;;;;5035107;28;20056;-66
2023/03/17 09:45:40;;;;;;;3.75;2.85;;;13.80;99.90;;;;;;5052197;28;20044;-66
2023/03/17 09:48:27;;;;;;;3.47;2.72;;;14.00;99.90;;;;;;5051377;28;20079;-67
2023/03/17 09:51:01;;;;;;;4.68;2.85;;;14.10;99.90;;;;;;5051566;28;20045;-67
2023/03/17 09:53:35;;;;;;;5.70;3.25;;;14.30;99.90;;;;;;5051695;28;20125;-67
2023/03/17 09:56:15;;;;;;;6.22;3.20;;;14.50;99.90;;;;;;5052652;28;20072;-67
2023/03/17 09:58:50;;;;;;;5.15;3.20;;;14.70;99.50;;;;;;5051618;28;20045;-66
2023/03/17 10:01:16;;;;;;;5.75;3.10;;;14.90;99.60;;;;;;5050090;28;20041;-66
2023/03/17 10:03:42;;;;;;;5.35;2.88;;;15.00;99.30;;;;;;5068429;28;20051;-66
2023/03/17 10:06:32;;;;;;;5.20;3.17;;;15.10;99.10;;;;;;5051094;28;20037;-67
2023/03/17 10:09:32;;;;;;;4.50;3.35;;;15.20;98.60;;;;;;5051444;28;20079;-67
2023/03/17 10:12:04;;;;;;;4.53;2.63;;;15.50;98.50;;;;;;5013273;28;20049;-68
2023/03/17 10:14:37;;;;;;;5.67;2.90;;;15.60;98.50;;;;;;5013708;28;20053;-67
2023/03/17 10:17:17;;;;;;;4.38;2.90;;;15.80;98.30;;;;;;5013690;28;20288;-66
2023/03/17 10:20:11;;;;;;;5.95;3.53;;;16.00;97.30;;;;;;5030103;28;20057;-66
2023/03/17 10:22:41;;;;;;;5.40;3.17;;;16.00;97.10;;;;;;5013288;28;20061;-66
2023/03/17 10:25:15;;;;;;;4.15;3.10;;;16.20;97.10;;;;;;5013667;28;20042;-67
2023/03/17 10:27:43;;;;;;;5.05;3.42;;;16.20;96.00;;;;;;5013580;28;20053;-67
2023/03/17 10:30:21;;;;;;;4.53;3.20;;;16.20;96.30;;;;;;5046548;28;20131;-67
2023/03/17 10:32:47;;;;;;;4.78;3.40;;;16.30;96.70;;;;;;5013513;28;20080;-66
2023/03/17 10:35:14;;;;;;;5.25;3.40;;;16.50;96.40;;;;;;5012886;28;20081;-66
2023/03/17 10:37:41;;;;;;;5.43;3.28;;;16.70;96.40;;;;;;5046571;28;20045;-66
2023/03/17 10:40:17;;;;;;;5.55;3.22;;;16.90;96.00;;;;;;5013361;28;20044;-67
2023/03/17 10:42:48;;;;;;;4.82;3.20;;;17.00;95.10;;;;;;5023600;28;20409;-68
2023/03/17 10:45:23;;;;;;;4.72;3.38;;;16.90;95.10;;;;;;5044208;28;20056;-67
2023/03/17 10:47:49;;;;;;;6.22;3.42;;;16.90;95.10;;;;;;5013821;28;20115;-66
2023/03/17 10:50:29;;;;;;;3.90;2.85;;;17.00;95.60;;;;;;5082179;28;20048;-67
2023/03/17 10:53:09;;;;;;;6.70;3.70;;;17.30;95.50;;;;;;5034424;28;20548;-66
2023/03/17 10:55:43;;;;;;;6.70;3.55;;;17.50;95.30;;;;;;5033628;28;20127;-66
2023/03/17 10:58:09;;;;;;;5.05;3.28;;;17.70;93.90;;;;;;5050731;28;20033;-65
2023/03/17 11:00:37;;;;;;;4.85;3.47;;;17.90;94.60;;;;;;5050177;28;20032;-68
2023/03/17 11:03:27;;;;;;;3.55;3.25;;;18.20;94.00;;;;;;5033789;28;20035;-67
2023/03/17 11:05:56;;;;;;;4.72;3.20;;;18.40;93.40;;;;;;5050284;28;20422;-66
2023/03/17 11:08:22;;;;;;;6.80;3.30;;;18.80;93.60;;;;;;5033876;28;20136;-68
2023/03/17 11:10:55;;;;;;;6.25;3.60;;;18.60;91.80;;;;;;5050112;28;20083;-66
2023/03/17 11:13:20;;;;;;;;;;;18.80;91.40;;;;;;5050146;28;20114;-66
2023/03/17 11:15:56;;;;;;;6.55;3.38;;;18.60;90.50;;;;;;5049438;28;19920;-66
2023/03/17 11:18:24;;;;;;;6.18;3.67;;;19.00;91.10;;;;;;5049649;28;20053;-68
2023/03/17 11:20:58;;;;;;;6.03;3.60;;;18.60;88.70;;;;;;5048860;28;20041;-67
2023/03/17 11:23:46;;;;;;;5.05;3.75;;;18.40;90.00;;;;;;5077334;28;20087;-66
2023/03/17 11:26:39;;;;;;;7.90;3.22;;;18.50;87.50;;;;;;5050081;28;20484;-66
2023/03/17 11:29:29;;;;;;;6.15;3.40;;;18.60;87.00;;;;;;5066315;28;20037;-67
2023/03/17 11:32:05;;;;;;;5.15;3.63;;;19.10;90.30;;;;;;5049649;28;20033;-66
2023/03/17 11:34:57;;;;;;;5.65;3.40;;;19.10;88.20;;;;;;5050668;28;20040;-67
2023/03/17 11:37:41;;;;;;;6.30;3.60;;;19.30;87.80;;;;;;5049120;28;20118;-67
2023/03/17 11:40:32;;;;;;;7.35;3.75;;;19.30;87.70;;;;;;5049945;28;20045;-67
2023/03/17 11:43:10;;;;;;;5.53;3.65;;;19.30;86.70;;;;;;5049664;28;20041;-68
2023/03/17 11:46:12;;;;;;;5.88;3.50;;;18.90;87.90;;;;;;5066196;28;20079;-68
2023/03/17 11:48:40;;;;;;;6.10;3.43;;;18.80;87.00;;;;;;5045889;28;20119;-66
2023/03/17 11:51:49;;;;;;;6.13;3.70;;;18.70;88.00;;;;;;5053328;28;20043;-67
2023/03/17 11:54:34;;;;;;;7.97;3.80;;;18.40;89.20;;;;;;5053968;28;20042;-68
2023/03/17 11:57:04;;;;;;;5.20;3.85;;;18.20;88.30;;;;;;5074895;28;20040;-67
2023/03/17 12:00:14;;;;;;;6.10;3.80;;;18.00;89.30;;;;;;5048225;28;20073;-69
2023/03/17 12:02:56;;;;;;;5.60;4.15;;;17.70;89.70;;;;;;5060054;28;20057;-67
2023/03/17 12:05:25;;;;;;;5.55;3.70;;;17.70;90.30;;;;;;5030845;28;20503;-69
2023/03/17 12:08:00;;;;;;;7.43;3.67;;;17.70;90.20;;;;;;5064429;28;20052;-68
2023/03/17 12:10:39;;;;;;;7.35;3.92;;;17.70;90.50;;;;;;5031873;28;20044;-67
2023/03/17 12:13:10;;;;;;;4.57;3.50;;;17.50;88.80;;;;;;5063474;28;20084;-67
2023/03/17 12:15:46;;;;;;;6.32;3.85;;;17.50;91.00;;;;;;5031427;28;20428;-69
2023/03/17 12:18:33;;;;;;;8.63;3.70;;;17.70;91.50;;;;;;5012833;28;20127;-67
2023/03/17 12:21:06;;;;;;;12.07;3.60;;;17.70;90.30;;;;;;5030515;28;20139;-67
2023/03/17 12:23:37;;;;;;;6.68;4.47;;;17.60;90.90;;;;;;5060759;28;20053;-66
2023/03/17 12:26:40;;;;;;;5.23;3.70;;;17.70;90.50;;;;;;5017378;28;20053;-67
2023/03/17 12:29:15;;;;;;;5.47;3.70;;;17.70;91.00;;;;;;5033411;28;20076;-67
2023/03/17 12:31:54;;;;;;;6.28;3.92;;;17.60;90.70;;;;;;5065787;28;20045;-68
2023/03/17 12:34:35;;;;;;;6.65;3.83;;;17.60;91.80;;;;;;5017053;28;20053;-67
2023/03/17 12:37:01;;;;;;;6.97;3.73;;;17.60;91.30;;;;;;5066131;28;20084;-67
2023/03/17 12:39:33;;;;;;;5.78;3.53;;;17.50;91.50;;;;;;5041781;28;20064;-67
2023/03/17 12:42:10;;;;;;;6.20;3.70;;;17.40;91.40;;;;;;5051376;28;20047;-66
2023/03/17 12:45:02;;;;;;;5.85;3.88;;;17.10;91.50;;;;;;5069162;28;20098;-69
2023/03/17 12:47:49;;;;;;;4.78;3.70;;;17.10;92.00;;;;;;5044865;28;20455;-66
2023/03/17 12:50:54;;;;;;;6.57;3.70;;;17.20;92.60;;;;;;5045974;28;20188;-68
2023/03/17 12:53:31;;;;;;;7.43;3.95;;;17.10;91.80;;;;;;5047104;28;20167;-67
2023/03/17 12:56:19;;;;;;;6.50;3.97;;;17.50;92.60;;;;;;5048216;28;20032;-67
2023/03/17 12:58:48;;;;;;;6.13;4.18;;;17.60;92.40;;;;;;5052824;28;20131;-68
2023/03/17 13:01:43;;;;;;;5.68;3.60;;;17.70;92.60;;;;;;5034480;28;20076;-67
2023/03/17 13:04:11;;;;;;;7.90;4.10;;;17.80;92.20;;;;;;5051051;28;20044;-68
2023/03/17 13:06:53;;;;;;;5.85;3.72;;;17.80;92.20;;;;;;5053124;28;20040;-67